Česky Dansk Deutsch English Español Suomi Français Magyar Italiano Nederlands norsk Polski Português svenska Türkçe

 

Het Weer

El Arish (Egypt)

19:00, 19 augustus 2016 (GMT)

NWNNE
WE
SWSSE
Home            
El Arish Beer-Sheva Ben-Gurion International Airport Port Said Tel Aviv / Sde-Dov Airport Ovda Jerusalem Airport Taba Aqaba Airport Eilat Ma'An Queen Alia Airport Sde-Haifa Haifa Amman Airport Irbid Cairo Airport Galilee / Pina Mafraq Guriat El Tor H-5'Safawi Beyrouth Aeroport Alexandria Borg El Arab

Om een weerknop op uw website of weblog te plaatsen, copieer onderstaande code en plak die in uw pagina. In het eerste vakje staat HTML-code, in het tweede vakje UBB-code.


Add to Google

Details

Wind speed:1 bf, 2 kn, 1.0 m/s, 2.3 miles/h, 3.7 km/h
Wind direction:N, 360°
Visibility:Greater than 10000 m, 10 km, 32800 ft, 6.2 miles
Clouds:CAVOC
Temperature:26°C, 79°F
Gefühlte Temperatur:28°C, 82°F
Dew-point:22°C, 72°F
Atmospheric pressure:1008 hPa, 756.1 mmHg, 29.77 inHg, 0.995 atm
Relative humidity:78.7 %
METAR:HEAR 191900Z 36002KT CAVOK 26/22 Q1008 NOSIG

Snelkoppelingen

Actuele weersinformatie van de hele wereld. Voeg locaties toe met het plus (+) symbool. Deze snelkoppelingen kunnen worden toegevoegd aan Google.

Lid van de Technetium groep

website free tracking
StatCounter NetStat W3C Validator

17-12-2017 04:45:57
astro.technetium.be money.technetium.be phote.technetium.be tafeltennistafel.technetium.be www.ligfiets.net